createdAt,value
2018-04-07T00:01:00.565Z,9.00
2018-04-07T00:03:28.898Z,9.00
2018-04-07T00:05:57.214Z,9.00
2018-04-07T00:08:25.546Z,9.00
2018-04-07T00:10:53.857Z,8.90
2018-04-07T00:13:22.201Z,8.90
2018-04-07T00:15:50.514Z,8.80
2018-04-07T00:18:18.860Z,8.80
2018-04-07T00:20:47.189Z,8.80
2018-04-07T00:23:15.538Z,8.70
2018-04-07T00:25:44.085Z,8.70
2018-04-07T00:28:12.444Z,8.60
2018-04-07T00:30:40.754Z,8.50
2018-04-07T00:33:09.098Z,8.50
2018-04-07T00:35:37.409Z,8.40
2018-04-07T00:38:05.749Z,8.30
2018-04-07T00:40:34.070Z,8.30
2018-04-07T00:43:02.417Z,8.30
2018-04-07T00:45:30.743Z,8.20
2018-04-07T00:47:59.087Z,8.10
2018-04-07T00:50:27.405Z,8.00
2018-04-07T00:52:57.177Z,7.90
2018-04-07T00:55:25.505Z,7.70
2018-04-07T00:57:53.845Z,7.60
2018-04-07T01:00:22.179Z,7.50
2018-04-07T01:02:50.518Z,7.40
2018-04-07T01:05:18.887Z,7.30
2018-04-07T01:07:47.224Z,7.20
2018-04-07T01:10:15.856Z,7.10
2018-04-07T01:12:44.196Z,7.00
2018-04-07T01:15:12.519Z,6.90
2018-04-07T01:17:40.875Z,6.80
2018-04-07T01:20:09.192Z,6.70
2018-04-07T01:22:37.527Z,6.60
2018-04-07T01:25:05.874Z,6.50
2018-04-07T01:27:34.222Z,6.40
2018-04-07T01:30:02.550Z,6.30
2018-04-07T01:32:30.875Z,6.30
2018-04-07T01:34:59.214Z,6.20
2018-04-07T01:37:27.527Z,6.10
2018-04-07T01:39:55.855Z,6.00
2018-04-07T01:42:24.166Z,6.00
2018-04-07T01:44:52.524Z,6.00
2018-04-07T01:47:20.836Z,5.90
2018-04-07T01:49:49.173Z,5.90
2018-04-07T01:52:17.484Z,5.80
2018-04-07T01:54:45.822Z,5.80
2018-04-07T01:57:14.137Z,5.70
2018-04-07T01:59:42.470Z,5.60
2018-04-07T02:02:10.815Z,5.60
2018-04-07T02:04:39.169Z,5.60
2018-04-07T02:07:07.479Z,5.50
2018-04-07T02:09:35.811Z,5.50
2018-04-07T02:12:04.195Z,5.40
2018-04-07T02:14:32.531Z,5.40
2018-04-07T02:17:00.854Z,5.40
2018-04-07T02:19:29.188Z,5.30
2018-04-07T02:21:57.539Z,5.30
2018-04-07T02:24:25.878Z,5.30
2018-04-07T02:26:54.190Z,5.20
2018-04-07T02:29:22.521Z,5.20
2018-04-07T02:31:50.833Z,5.20
2018-04-07T02:34:19.171Z,5.10
2018-04-07T02:36:47.488Z,5.00
2018-04-07T02:39:15.833Z,5.00
2018-04-07T02:41:44.156Z,4.90
2018-04-07T02:44:12.500Z,4.90
2018-04-07T02:46:41.154Z,4.90
2018-04-07T02:49:10.172Z,4.80
2018-04-07T02:51:38.494Z,4.80
2018-04-07T02:54:06.847Z,4.80
2018-04-07T02:56:35.176Z,4.80
2018-04-07T02:59:03.510Z,4.80
2018-04-07T03:01:31.831Z,4.70
2018-04-07T03:04:00.171Z,4.70
2018-04-07T03:06:28.477Z,4.60
2018-04-07T03:08:56.811Z,4.60
2018-04-07T03:11:25.124Z,4.70
2018-04-07T03:13:53.444Z,4.70
2018-04-07T03:16:21.783Z,4.60
2018-04-07T03:18:50.114Z,4.60
2018-04-07T03:21:18.459Z,4.50
2018-04-07T03:23:46.770Z,4.50
2018-04-07T03:26:15.162Z,4.40
2018-04-07T03:28:43.481Z,4.40
2018-04-07T03:31:11.820Z,4.30
2018-04-07T03:33:40.144Z,4.30
2018-04-07T03:36:08.466Z,4.20
2018-04-07T03:38:36.779Z,4.20
2018-04-07T03:41:05.121Z,4.20
2018-04-07T03:43:33.430Z,4.20
2018-04-07T03:46:01.770Z,4.10
2018-04-07T03:48:30.086Z,4.10
2018-04-07T03:50:58.410Z,4.10
2018-04-07T03:53:26.748Z,4.10
2018-04-07T03:55:55.064Z,4.00
2018-04-07T03:58:23.395Z,4.00
2018-04-07T04:00:51.709Z,4.00
2018-04-07T04:03:20.062Z,4.00
2018-04-07T04:05:48.379Z,4.00
2018-04-07T04:08:16.715Z,3.90
2018-04-07T04:10:45.022Z,3.90
2018-04-07T04:13:13.363Z,3.90
2018-04-07T04:15:41.667Z,3.90
2018-04-07T04:18:09.998Z,3.80
2018-04-07T04:20:38.327Z,3.80
2018-04-07T04:23:06.670Z,3.80
2018-04-07T04:25:34.997Z,3.70
2018-04-07T04:28:03.309Z,3.70
2018-04-07T04:30:31.639Z,3.70
2018-04-07T04:32:59.974Z,3.70
2018-04-07T04:35:28.298Z,3.70
2018-04-07T04:37:56.614Z,3.60
2018-04-07T04:40:24.948Z,3.60
2018-04-07T04:42:53.255Z,3.50
2018-04-07T04:45:21.594Z,3.50
2018-04-07T04:47:49.932Z,3.60
2018-04-07T04:50:18.242Z,3.60
2018-04-07T04:52:46.571Z,3.60
2018-04-07T04:55:14.905Z,3.60
2018-04-07T04:57:43.238Z,3.60
2018-04-07T05:00:11.543Z,3.60
2018-04-07T05:02:39.877Z,3.60
2018-04-07T05:05:08.207Z,3.50
2018-04-07T05:07:36.546Z,3.50
2018-04-07T05:10:04.874Z,3.50
2018-04-07T05:12:33.200Z,3.60
2018-04-07T05:15:01.527Z,3.60
2018-04-07T05:17:29.865Z,3.60
2018-04-07T05:19:58.178Z,3.60
2018-04-07T05:22:26.523Z,3.60
2018-04-07T05:24:54.845Z,3.70
2018-04-07T05:27:23.197Z,3.70
2018-04-07T05:29:51.515Z,3.80
2018-04-07T05:32:19.824Z,3.80
2018-04-07T05:34:48.158Z,3.90
2018-04-07T05:37:16.463Z,3.90
2018-04-07T05:39:44.795Z,4.00
2018-04-07T05:42:13.127Z,4.00
2018-04-07T05:44:41.459Z,4.00
2018-04-07T05:47:09.776Z,4.10
2018-04-07T05:49:38.100Z,4.20
2018-04-07T05:52:06.395Z,4.30
2018-04-07T05:54:34.722Z,4.40
2018-04-07T05:57:03.032Z,4.60
2018-04-07T05:59:31.369Z,4.70
2018-04-07T06:01:59.686Z,4.80
2018-04-07T06:04:28.018Z,4.90
2018-04-07T06:06:56.338Z,5.10
2018-04-07T06:09:24.675Z,5.20
2018-04-07T06:11:52.988Z,5.30
2018-04-07T06:14:21.338Z,5.40
2018-04-07T06:16:49.655Z,5.50
2018-04-07T06:19:18.002Z,5.70
2018-04-07T06:21:46.339Z,5.80
2018-04-07T06:24:14.683Z,5.90
2018-04-07T06:26:43.008Z,6.00
2018-04-07T06:29:11.348Z,6.20
2018-04-07T06:31:39.662Z,6.40
2018-04-07T06:34:08.000Z,6.60
2018-04-07T06:36:36.314Z,6.80
2018-04-07T06:39:04.652Z,7.00
2018-04-07T06:41:32.960Z,7.20
2018-04-07T06:44:01.309Z,7.40
2018-04-07T06:46:29.634Z,7.60
2018-04-07T06:48:57.980Z,7.80
2018-04-07T06:51:26.299Z,8.00
2018-04-07T06:53:54.640Z,8.20
2018-04-07T06:56:22.968Z,8.40
2018-04-07T06:58:51.322Z,8.60
2018-04-07T07:01:19.960Z,8.90
2018-04-07T07:03:48.320Z,9.20
2018-04-07T07:06:16.643Z,9.50
2018-04-07T07:08:44.993Z,9.90
2018-04-07T07:11:13.322Z,10.10
2018-04-07T07:13:41.644Z,10.30
2018-04-07T07:16:09.978Z,10.60
2018-04-07T07:18:38.299Z,10.90
2018-04-07T07:21:06.635Z,11.20
2018-04-07T07:23:35.000Z,11.50
2018-04-07T07:26:03.327Z,11.80
2018-04-07T07:28:31.647Z,12.00
2018-04-07T07:30:59.986Z,12.20
2018-04-07T07:33:28.303Z,12.30
2018-04-07T07:35:56.642Z,12.50
2018-04-07T07:38:24.973Z,12.70
2018-04-07T07:40:53.315Z,12.90
2018-04-07T07:43:21.658Z,13.00
2018-04-07T07:45:50.060Z,13.20
2018-04-07T07:48:18.456Z,13.40
2018-04-07T07:50:46.800Z,13.60
2018-04-07T07:53:15.120Z,13.80
2018-04-07T07:55:43.472Z,14.00
2018-04-07T07:58:11.791Z,14.10
2018-04-07T08:00:40.128Z,14.30
2018-04-07T08:03:08.469Z,14.60
2018-04-07T08:05:36.815Z,14.80
2018-04-07T08:08:05.135Z,14.90
2018-04-07T08:10:33.476Z,15.10
2018-04-07T08:13:01.804Z,15.20
2018-04-07T08:15:30.140Z,15.30
2018-04-07T08:17:58.471Z,15.40
2018-04-07T08:20:26.841Z,15.50
2018-04-07T08:22:55.294Z,15.60
2018-04-07T08:25:23.772Z,15.80
2018-04-07T08:27:52.281Z,16.10
2018-04-07T08:30:20.791Z,16.30
2018-04-07T08:32:49.680Z,16.60
2018-04-07T08:35:18.080Z,16.70
2018-04-07T08:37:46.629Z,16.90
2018-04-07T08:40:14.971Z,17.00
2018-04-07T08:42:43.290Z,17.10
2018-04-07T08:45:11.630Z,17.10
2018-04-07T08:47:39.997Z,17.20
2018-04-07T08:50:08.333Z,17.20
2018-04-07T08:52:36.670Z,17.30
2018-04-07T08:55:05.009Z,17.50
2018-04-07T08:57:33.352Z,17.60
2018-04-07T09:00:01.687Z,17.80
2018-04-07T09:02:30.053Z,18.00
2018-04-07T09:04:58.376Z,18.10
2018-04-07T09:07:26.722Z,18.20
2018-04-07T09:09:55.049Z,18.30
2018-04-07T09:12:23.457Z,18.40
2018-04-07T09:14:51.762Z,18.40
2018-04-07T09:17:20.149Z,18.50
2018-04-07T09:19:48.499Z,18.50
2018-04-07T09:22:16.837Z,18.50
2018-04-07T09:24:45.154Z,18.70
2018-04-07T09:27:13.496Z,19.00
2018-04-07T09:29:41.820Z,19.10
2018-04-07T09:32:10.147Z,19.10
2018-04-07T09:34:38.463Z,19.00
2018-04-07T09:37:06.803Z,18.90
2018-04-07T09:39:35.122Z,18.80
2018-04-07T09:42:03.472Z,18.90
2018-04-07T09:44:31.790Z,19.00
2018-04-07T09:47:00.163Z,19.10
2018-04-07T09:49:28.476Z,19.10
2018-04-07T09:51:56.812Z,19.40
2018-04-07T09:54:25.130Z,19.60
2018-04-07T09:56:53.467Z,19.80
2018-04-07T09:59:21.777Z,19.80
2018-04-07T10:01:50.141Z,19.90
2018-04-07T10:04:18.454Z,20.00
2018-04-07T10:06:46.791Z,20.10
2018-04-07T10:09:15.110Z,20.20
2018-04-07T10:11:43.449Z,20.20
2018-04-07T10:14:11.772Z,20.30
2018-04-07T10:16:40.116Z,20.30
2018-04-07T10:19:08.703Z,20.30
2018-04-07T10:21:37.038Z,20.40
2018-04-07T10:24:05.364Z,20.40
2018-04-07T10:26:33.737Z,20.60
2018-04-07T10:29:02.052Z,20.70
2018-04-07T10:31:30.370Z,20.80
2018-04-07T10:33:58.714Z,20.90
2018-04-07T10:36:27.040Z,21.00
2018-04-07T10:38:55.380Z,21.00
2018-04-07T10:41:23.695Z,21.20
2018-04-07T10:43:52.039Z,21.20
2018-04-07T10:46:20.373Z,21.30
2018-04-07T10:48:48.766Z,21.30
2018-04-07T10:51:17.071Z,21.30
2018-04-07T10:53:45.414Z,21.30
2018-04-07T10:56:13.743Z,21.30
2018-04-07T10:58:42.079Z,21.30
2018-04-07T11:01:10.401Z,21.30
2018-04-07T11:03:38.736Z,21.30
2018-04-07T11:06:07.077Z,21.30
2018-04-07T11:08:35.403Z,21.40
2018-04-07T11:11:03.719Z,21.60
2018-04-07T11:13:32.056Z,21.80
2018-04-07T11:16:00.375Z,21.90
2018-04-07T11:18:28.703Z,21.90
2018-04-07T11:20:57.027Z,22.00
2018-04-07T11:23:25.360Z,22.10
2018-04-07T11:25:53.677Z,22.20
2018-04-07T11:28:22.025Z,22.20
2018-04-07T11:30:50.331Z,22.20
2018-04-07T11:33:18.688Z,22.40
2018-04-07T11:35:47.009Z,22.40
2018-04-07T11:38:15.340Z,22.50
2018-04-07T11:40:43.652Z,22.40
2018-04-07T11:43:11.983Z,22.30
2018-04-07T11:45:39.834Z,22.30
2018-04-07T11:48:08.172Z,22.30
2018-04-07T11:50:36.484Z,22.50
2018-04-07T11:53:04.837Z,22.60
2018-04-07T11:55:33.156Z,22.70
2018-04-07T11:58:01.489Z,22.50
2018-04-07T12:00:29.811Z,22.60
2018-04-07T12:02:58.161Z,22.60
2018-04-07T12:05:26.471Z,22.70
2018-04-07T12:07:54.809Z,22.90
2018-04-07T12:10:23.205Z,23.00
2018-04-07T12:12:51.488Z,23.20
2018-04-07T12:15:19.819Z,23.40
2018-04-07T12:17:48.144Z,23.40
2018-04-07T12:20:16.490Z,23.50
2018-04-07T12:22:44.804Z,23.50
2018-04-07T12:25:13.135Z,23.40
2018-04-07T12:27:41.443Z,23.50
2018-04-07T12:30:09.771Z,23.50
2018-04-07T12:32:38.082Z,23.60
2018-04-07T12:35:06.759Z,23.50
2018-04-07T12:37:35.077Z,23.50
2018-04-07T12:40:03.484Z,23.60
2018-04-07T12:42:31.804Z,23.60
2018-04-07T12:45:00.144Z,23.80
2018-04-07T12:47:28.467Z,23.90
2018-04-07T12:49:56.802Z,24.00
2018-04-07T12:52:25.132Z,24.10
2018-04-07T12:54:53.472Z,24.20
2018-04-07T12:57:21.792Z,24.10
2018-04-07T12:59:50.141Z,24.00
2018-04-07T13:02:19.028Z,24.10
2018-04-07T13:04:47.375Z,24.10
2018-04-07T13:07:15.706Z,24.10
2018-04-07T13:09:44.046Z,24.30
2018-04-07T13:12:12.372Z,24.40
2018-04-07T13:14:40.708Z,24.30
2018-04-07T13:17:09.043Z,24.40
2018-04-07T13:19:37.384Z,24.50
2018-04-07T13:22:05.691Z,24.50
2018-04-07T13:24:34.036Z,24.50
2018-04-07T13:27:02.356Z,24.60
2018-04-07T13:29:30.688Z,24.60
2018-04-07T13:31:59.000Z,24.60
2018-04-07T13:34:27.346Z,24.70
2018-04-07T13:36:55.672Z,24.70
2018-04-07T13:39:24.009Z,24.70
2018-04-07T13:41:52.338Z,24.70
2018-04-07T13:44:20.704Z,24.70
2018-04-07T13:46:49.056Z,24.80
2018-04-07T13:49:17.372Z,24.80
2018-04-07T13:51:45.707Z,24.80
2018-04-07T13:54:14.034Z,25.00
2018-04-07T13:56:42.373Z,25.10
2018-04-07T13:59:10.692Z,25.00
2018-04-07T14:01:39.034Z,25.00
2018-04-07T14:04:07.359Z,25.10
2018-04-07T14:06:35.707Z,25.20
2018-04-07T14:09:04.027Z,25.20
2018-04-07T14:11:32.358Z,24.90
2018-04-07T14:14:00.674Z,25.00
2018-04-07T14:16:29.008Z,25.10
2018-04-07T14:18:57.506Z,25.20
2018-04-07T14:21:25.834Z,25.30
2018-04-07T14:23:54.168Z,25.30
2018-04-07T14:26:22.504Z,25.20
2018-04-07T14:28:50.816Z,25.10
2018-04-07T14:31:19.220Z,25.00
2018-04-07T14:33:47.546Z,25.00
2018-04-07T14:36:15.887Z,25.00
2018-04-07T14:38:44.211Z,24.80
2018-04-07T14:41:12.549Z,24.60
2018-04-07T14:43:40.864Z,24.70
2018-04-07T14:46:09.207Z,24.80
2018-04-07T14:48:38.072Z,24.70
2018-04-07T14:51:06.418Z,24.70
2018-04-07T14:53:34.747Z,24.60
2018-04-07T14:56:03.087Z,24.70
2018-04-07T14:58:31.407Z,24.60
2018-04-07T15:01:00.591Z,24.60
2018-04-07T15:03:28.928Z,24.50
2018-04-07T15:05:57.259Z,24.40
2018-04-07T15:08:25.592Z,24.30
2018-04-07T15:10:53.936Z,24.20
2018-04-07T15:13:22.250Z,24.30
2018-04-07T15:15:50.608Z,24.20
2018-04-07T15:18:19.702Z,24.20
2018-04-07T15:20:48.045Z,24.10
2018-04-07T15:23:16.394Z,24.10
2018-04-07T15:25:44.748Z,24.10
2018-04-07T15:28:13.071Z,23.90
2018-04-07T15:30:41.402Z,23.90
2018-04-07T15:33:09.736Z,23.90
2018-04-07T15:35:38.045Z,24.00
2018-04-07T15:38:06.381Z,24.00
2018-04-07T15:40:34.701Z,24.00
2018-04-07T15:43:03.041Z,23.90
2018-04-07T15:45:31.354Z,23.90
2018-04-07T15:47:59.689Z,23.90
2018-04-07T15:50:28.005Z,23.90
2018-04-07T15:52:56.349Z,23.90
2018-04-07T15:55:24.688Z,24.00
2018-04-07T15:57:53.026Z,23.90
2018-04-07T16:00:21.346Z,23.80
2018-04-07T16:02:49.716Z,23.70
2018-04-07T16:05:18.057Z,23.60
2018-04-07T16:07:46.426Z,23.60
2018-04-07T16:10:14.751Z,23.60
2018-04-07T16:12:43.107Z,23.70
2018-04-07T16:15:11.426Z,23.70
2018-04-07T16:17:39.767Z,23.50
2018-04-07T16:20:08.090Z,23.30
2018-04-07T16:22:36.469Z,23.20
2018-04-07T16:25:04.779Z,23.20
2018-04-07T16:27:33.111Z,23.20
2018-04-07T16:30:01.423Z,23.20
2018-04-07T16:32:29.787Z,23.10
2018-04-07T16:34:58.116Z,23.10
2018-04-07T16:37:26.465Z,23.10
2018-04-07T16:39:54.785Z,23.00
2018-04-07T16:42:23.122Z,22.90
2018-04-07T16:44:51.430Z,22.80
2018-04-07T16:47:19.770Z,22.70
2018-04-07T16:49:48.125Z,22.70
2018-04-07T16:52:16.472Z,22.60
2018-04-07T16:54:44.784Z,22.50
2018-04-07T16:57:13.120Z,22.30
2018-04-07T16:59:41.428Z,22.00
2018-04-07T17:02:09.770Z,21.80
2018-04-07T17:04:38.111Z,21.60
2018-04-07T17:07:06.434Z,21.50
2018-04-07T17:09:34.775Z,21.60
2018-04-07T17:12:03.160Z,21.70
2018-04-07T17:14:31.511Z,21.70
2018-04-07T17:16:59.060Z,21.70
2018-04-07T17:19:27.396Z,21.50
2018-04-07T17:21:55.720Z,21.20
2018-04-07T17:24:24.067Z,21.00
2018-04-07T17:26:52.432Z,20.70
2018-04-07T17:29:20.766Z,20.40
2018-04-07T17:31:49.098Z,20.10
2018-04-07T17:34:17.448Z,19.80
2018-04-07T17:36:45.767Z,19.60
2018-04-07T17:39:14.104Z,19.40
2018-04-07T17:41:42.431Z,19.30
2018-04-07T17:44:10.771Z,19.10
2018-04-07T17:46:39.095Z,19.00
2018-04-07T17:49:07.428Z,18.80
2018-04-07T17:51:35.751Z,18.70
2018-04-07T17:54:04.093Z,18.50
2018-04-07T17:56:32.411Z,18.40
2018-04-07T17:59:00.753Z,18.20
2018-04-07T18:01:29.063Z,18.00
2018-04-07T18:03:57.396Z,17.90
2018-04-07T18:06:25.710Z,17.80
2018-04-07T18:08:54.043Z,17.60
2018-04-07T18:11:22.378Z,17.40
2018-04-07T18:13:50.712Z,17.20
2018-04-07T18:16:19.044Z,17.10
2018-04-07T18:18:47.387Z,17.00
2018-04-07T18:21:15.722Z,16.80
2018-04-07T18:23:44.056Z,16.70
2018-04-07T18:26:12.442Z,16.60
2018-04-07T18:28:40.782Z,16.40
2018-04-07T18:31:09.090Z,16.30
2018-04-07T18:33:37.521Z,16.10
2018-04-07T18:36:05.847Z,15.90
2018-04-07T18:38:34.182Z,15.80
2018-04-07T18:41:02.507Z,15.70
2018-04-07T18:43:30.987Z,15.50
2018-04-07T18:45:59.355Z,15.40
2018-04-07T18:48:27.721Z,15.30
2018-04-07T18:50:56.071Z,15.20
2018-04-07T18:53:24.391Z,15.10
2018-04-07T18:55:52.738Z,15.00
2018-04-07T18:58:21.114Z,14.90
2018-04-07T19:00:49.631Z,14.90
2018-04-07T19:03:17.955Z,14.80
2018-04-07T19:05:46.327Z,14.70
2018-04-07T19:08:14.661Z,14.50
2018-04-07T19:10:43.036Z,14.40
2018-04-07T19:13:11.355Z,14.30
2018-04-07T19:15:39.758Z,14.20
2018-04-07T19:18:08.071Z,14.20
2018-04-07T19:20:36.422Z,14.10
2018-04-07T19:23:04.755Z,14.10
2018-04-07T19:25:33.086Z,14.00
2018-04-07T19:28:01.407Z,14.00
2018-04-07T19:30:29.837Z,13.90
2018-04-07T19:32:58.163Z,13.80
2018-04-07T19:35:26.517Z,13.70
2018-04-07T19:37:54.843Z,13.60
2018-04-07T19:40:23.186Z,13.50
2018-04-07T19:42:51.520Z,13.40
2018-04-07T19:45:19.878Z,13.30
2018-04-07T19:47:48.225Z,13.30
2018-04-07T19:50:16.646Z,13.20
2018-04-07T19:52:44.967Z,13.20
2018-04-07T19:55:13.319Z,13.10
2018-04-07T19:57:41.661Z,13.10
2018-04-07T20:00:10.071Z,13.00
2018-04-07T20:02:38.384Z,13.00
2018-04-07T20:05:06.727Z,13.00
2018-04-07T20:07:35.048Z,13.00
2018-04-07T20:10:03.382Z,13.00
2018-04-07T20:12:31.697Z,13.00
2018-04-07T20:15:00.042Z,13.00
2018-04-07T20:17:28.364Z,13.00
2018-04-07T20:19:56.706Z,13.00
2018-04-07T20:22:25.035Z,13.00
2018-04-07T20:24:53.392Z,13.00
2018-04-07T20:27:21.717Z,13.10
2018-04-07T20:29:50.046Z,13.10
2018-04-07T20:32:18.424Z,13.10
2018-04-07T20:34:46.756Z,13.10
2018-04-07T20:37:15.106Z,13.10
2018-04-07T20:39:43.439Z,13.10
2018-04-07T20:42:23.644Z,13.00
2018-04-07T20:44:52.001Z,13.00
2018-04-07T20:47:23.176Z,13.00
2018-04-07T20:49:51.494Z,13.00
2018-04-07T20:52:20.786Z,13.00
2018-04-07T20:54:49.158Z,13.00
2018-04-07T20:57:17.462Z,12.90
2018-04-07T20:59:45.773Z,12.90
2018-04-07T21:02:14.124Z,12.90
2018-04-07T21:04:42.439Z,12.90
2018-04-07T21:07:10.012Z,12.90
2018-04-07T21:09:38.328Z,12.90
2018-04-07T21:12:06.662Z,12.90
2018-04-07T21:14:34.975Z,12.90
2018-04-07T21:17:03.306Z,12.80
2018-04-07T21:19:31.621Z,12.90
2018-04-07T21:21:59.949Z,12.80
2018-04-07T21:24:28.259Z,12.80
2018-04-07T21:26:56.604Z,12.80
2018-04-07T21:29:24.925Z,12.80
2018-04-07T21:31:53.262Z,12.80
2018-04-07T21:34:21.579Z,12.70
2018-04-07T21:36:50.805Z,12.70
2018-04-07T21:39:19.162Z,12.70
2018-04-07T21:41:47.500Z,12.60
2018-04-07T21:44:15.817Z,12.60
2018-04-07T21:46:44.148Z,12.60
2018-04-07T21:49:12.460Z,12.60
2018-04-07T21:51:40.799Z,12.50
2018-04-07T21:54:09.116Z,12.50
2018-04-07T21:56:37.463Z,12.50
2018-04-07T21:59:05.796Z,12.40
2018-04-07T22:01:34.135Z,12.30
2018-04-07T22:04:02.462Z,12.30
2018-04-07T22:06:30.802Z,12.20
2018-04-07T22:08:59.119Z,12.00
2018-04-07T22:11:27.451Z,12.00
2018-04-07T22:13:55.769Z,11.90
2018-04-07T22:16:24.120Z,11.80
2018-04-07T22:18:52.486Z,11.80
2018-04-07T22:21:20.828Z,11.70
2018-04-07T22:23:49.164Z,11.60
2018-04-07T22:26:17.482Z,11.50
2018-04-07T22:28:45.820Z,11.40
2018-04-07T22:31:14.136Z,11.40
2018-04-07T22:33:42.485Z,11.30
2018-04-07T22:36:10.798Z,11.20
2018-04-07T22:38:39.159Z,11.10
2018-04-07T22:41:07.502Z,11.00
2018-04-07T22:43:35.826Z,11.00
2018-04-07T22:46:04.141Z,10.90
2018-04-07T22:48:32.494Z,10.90
2018-04-07T22:51:00.808Z,10.80
2018-04-07T22:53:29.147Z,10.80
2018-04-07T22:55:57.460Z,10.80
2018-04-07T22:58:25.806Z,10.70
2018-04-07T23:00:54.152Z,10.60
2018-04-07T23:03:22.487Z,10.50
2018-04-07T23:05:50.825Z,10.40
2018-04-07T23:08:19.153Z,10.30
2018-04-07T23:10:47.521Z,10.30
2018-04-07T23:13:15.831Z,10.20
2018-04-07T23:15:44.173Z,10.20
2018-04-07T23:18:12.495Z,10.20
2018-04-07T23:20:40.830Z,10.20
2018-04-07T23:23:09.142Z,10.10
2018-04-07T23:25:37.487Z,10.10
2018-04-07T23:28:05.803Z,10.10
2018-04-07T23:30:34.143Z,10.10
2018-04-07T23:33:02.460Z,10.10
2018-04-07T23:35:30.799Z,10.10
2018-04-07T23:37:59.122Z,10.10
2018-04-07T23:40:27.470Z,10.00
2018-04-07T23:42:55.799Z,10.00
2018-04-07T23:45:24.136Z,10.00
2018-04-07T23:47:52.473Z,10.00
2018-04-07T23:50:20.816Z,10.00
2018-04-07T23:52:49.128Z,10.00
2018-04-07T23:55:17.479Z,9.90
2018-04-07T23:57:45.794Z,10.00
